Terminal Aerodrome Forecast
Issued by NWS Denver/Boulder, CO

Home | Current Version | Previous Version | Text Only | Print | Product List | Glossary Off
Versions: 1 2 3 4 5 6 7 8 9 10 11 12 13 14 15 16 17 18 19 20 21 22 23 24 25 26 27 28 29 30 31 32 33 34 35 36 37 38 39 40 41 42 43 44 45 46 47 48 49 50

000
FTUS45 KBOU 031158
TAFDEN
TAF
KDEN 031158Z 0312/0418 27020G27KT P6SM FEW120
     FM031230 01017G27KT P6SM SCT020 BKN100
     FM031500 04014G22KT P6SM VCSH SCT008 OVC020
      TEMPO 0319/0322 3SM -SN OVC008
     FM032200 06014KT 3SM -SN BR SCT006 OVC015
     FM040000 04012KT 1SM -SN BR BKN006 OVC012
     FM040400 04010KT 3/4SM -SN BR BKN005 OVC008
     FM041200 04006KT 2SM -SN BR SCT006 OVC012
     FM041500 08006KT P6SM BKN015 OVC025=

USA.gov is the U.S. government's official web portal to all federal, state and local government web resources and services.